Main page
METAR-TAF:

METAR-TAF

Airports :

Trieste / Ronchi dei Legionari, Italy

Trieste – Friuli Venezia Giulia Airport

latitude: 45-49N, longitude: 013-29E, elevation: 12 m

Current weather observation

The report was made 29 minutes ago, at 14:50 UTC
Wind 4 kt from the North/Northeast, varying between North and Northeast
Temperature 12°C
Humidity 88%
Pressure 1010 hPa
Visibility 10 km or more
Scattered clouds at a height of 4000 ft
Broken clouds at a height of 7000 ft
light rain

METAR: LIPQ 191450Z 02004KT 350V050 9999 -RA SCT040 BKN070 12/10 Q1010

Time: 17:19 (15:19 UTC)

Forecast

The report was made 4 hours and 19 minutes ago, at 11:00 UTC
Forecast valid from 19 at 12 UTC to 20 at 12 UTC
Wind 8 kt from the North/Northeast
Visibility 10 km or more
Scattered clouds at a height of 4000 ft
Temporary
from 19 at 12 UTC to 19 at 20 UTC
rain

TAF: LIPQ 191100Z 1912/2012 02008KT 9999 SCT040 TEMPO 1912/1920 RA

Weather observations and forecasts of more than 4000 airports (METAR and TAF reports).

The available stations are represented by yellow and red dots on the map.

Hover mouse over dot to see the name of the station.

Then click to see weather observations and forecasts.

To change the map : click on the green buttons with a black cross to zoom in, on the green button with a dash to zoom out, or on the green arrows for adjacent maps.


METAR-TAF: